sensor_id;sensor_type;location;lat;lon;timestamp;temperature;humidity
78479;SHT31;67769;51.972;5.668;2023-06-14T00:01:47;22.6;34.0
78479;SHT31;67769;51.972;5.668;2023-06-14T00:04:16;22.6;33.7
78479;SHT31;67769;51.972;5.668;2023-06-14T00:06:48;22.6;33.9
78479;SHT31;67769;51.972;5.668;2023-06-14T00:09:18;22.6;34.0
78479;SHT31;67769;51.972;5.668;2023-06-14T00:11:47;22.5;34.0
78479;SHT31;67769;51.972;5.668;2023-06-14T00:14:17;22.5;34.0
78479;SHT31;67769;51.972;5.668;2023-06-14T00:16:47;22.5;34.1
78479;SHT31;67769;51.972;5.668;2023-06-14T00:19:16;22.5;34.3
78479;SHT31;67769;51.972;5.668;2023-06-14T00:21:47;22.5;34.1
78479;SHT31;67769;51.972;5.668;2023-06-14T00:24:17;22.4;34.3
78479;SHT31;67769;51.972;5.668;2023-06-14T00:26:47;22.4;34.3
78479;SHT31;67769;51.972;5.668;2023-06-14T00:29:17;22.4;34.5
78479;SHT31;67769;51.972;5.668;2023-06-14T00:31:46;22.4;34.7
78479;SHT31;67769;51.972;5.668;2023-06-14T00:34:16;22.4;34.5
78479;SHT31;67769;51.972;5.668;2023-06-14T00:36:46;22.3;34.6
78479;SHT31;67769;51.972;5.668;2023-06-14T00:39:15;22.3;34.7
78479;SHT31;67769;51.972;5.668;2023-06-14T00:41:45;22.3;34.8
78479;SHT31;67769;51.972;5.668;2023-06-14T00:44:16;22.3;34.7
78479;SHT31;67769;51.972;5.668;2023-06-14T00:46:47;22.3;34.7
78479;SHT31;67769;51.972;5.668;2023-06-14T00:49:18;22.2;35.1
78479;SHT31;67769;51.972;5.668;2023-06-14T00:51:50;22.2;35.2
78479;SHT31;67769;51.972;5.668;2023-06-14T00:54:20;22.2;35.2
78479;SHT31;67769;51.972;5.668;2023-06-14T00:56:50;22.2;35.4
78479;SHT31;67769;51.972;5.668;2023-06-14T00:59:20;22.1;35.4
78479;SHT31;67769;51.972;5.668;2023-06-14T01:01:50;22.1;35.5
78479;SHT31;67769;51.972;5.668;2023-06-14T01:04:19;22.1;35.5
78479;SHT31;67769;51.972;5.668;2023-06-14T01:06:55;22.0;35.7
78479;SHT31;67769;51.972;5.668;2023-06-14T01:09:40;22.0;35.8
78479;SHT31;67769;51.972;5.668;2023-06-14T01:12:18;22.0;35.7
78479;SHT31;67769;51.972;5.668;2023-06-14T01:14:54;22.0;35.7
78479;SHT31;67769;51.972;5.668;2023-06-14T01:17:24;21.9;35.9
78479;SHT31;67769;51.972;5.668;2023-06-14T01:19:54;21.9;35.9
78479;SHT31;67769;51.972;5.668;2023-06-14T01:22:26;21.9;36.1
78479;SHT31;67769;51.972;5.668;2023-06-14T01:24:56;21.8;36.1
78479;SHT31;67769;51.972;5.668;2023-06-14T01:27:26;21.8;36.2
78479;SHT31;67769;51.972;5.668;2023-06-14T01:30:00;21.8;36.2
78479;SHT31;67769;51.972;5.668;2023-06-14T01:32:32;21.7;36.5
78479;SHT31;67769;51.972;5.668;2023-06-14T01:35:02;21.7;36.5
78479;SHT31;67769;51.972;5.668;2023-06-14T01:37:33;21.7;36.5
78479;SHT31;67769;51.972;5.668;2023-06-14T01:40:05;21.6;36.5
78479;SHT31;67769;51.972;5.668;2023-06-14T01:42:38;21.6;36.7
78479;SHT31;67769;51.972;5.668;2023-06-14T01:45:09;21.6;36.9
78479;SHT31;67769;51.972;5.668;2023-06-14T01:47:40;21.5;37.0
78479;SHT31;67769;51.972;5.668;2023-06-14T01:50:13;21.5;36.9
78479;SHT31;67769;51.972;5.668;2023-06-14T01:52:45;21.5;37.0
78479;SHT31;67769;51.972;5.668;2023-06-14T01:55:14;21.4;37.0
78479;SHT31;67769;51.972;5.668;2023-06-14T01:57:45;21.4;37.2
78479;SHT31;67769;51.972;5.668;2023-06-14T02:00:15;21.3;37.3
78479;SHT31;67769;51.972;5.668;2023-06-14T02:02:45;21.3;37.4
78479;SHT31;67769;51.972;5.668;2023-06-14T02:05:15;21.3;37.4
78479;SHT31;67769;51.972;5.668;2023-06-14T02:07:46;21.2;37.5
78479;SHT31;67769;51.972;5.668;2023-06-14T02:10:16;21.2;37.5
78479;SHT31;67769;51.972;5.668;2023-06-14T02:12:45;21.2;37.7
78479;SHT31;67769;51.972;5.668;2023-06-14T02:15:15;21.1;37.7
78479;SHT31;67769;51.972;5.668;2023-06-14T02:17:47;21.1;37.7
78479;SHT31;67769;51.972;5.668;2023-06-14T02:20:17;21.0;38.2
78479;SHT31;67769;51.972;5.668;2023-06-14T02:22:46;21.0;38.2
78479;SHT31;67769;51.972;5.668;2023-06-14T02:25:16;21.0;38.0
78479;SHT31;67769;51.972;5.668;2023-06-14T02:27:46;20.9;38.2
78479;SHT31;67769;51.972;5.668;2023-06-14T02:30:16;20.9;38.4
78479;SHT31;67769;51.972;5.668;2023-06-14T02:32:45;20.9;38.4
78479;SHT31;67769;51.972;5.668;2023-06-14T02:35:16;20.9;38.4
78479;SHT31;67769;51.972;5.668;2023-06-14T02:37:48;20.8;38.7
78479;SHT31;67769;51.972;5.668;2023-06-14T02:40:18;20.8;38.6
78479;SHT31;67769;51.972;5.668;2023-06-14T02:42:48;20.8;38.8
78479;SHT31;67769;51.972;5.668;2023-06-14T02:45:18;20.7;38.9
78479;SHT31;67769;51.972;5.668;2023-06-14T02:47:48;20.7;39.0
78479;SHT31;67769;51.972;5.668;2023-06-14T02:50:19;20.7;38.9
78479;SHT31;67769;51.972;5.668;2023-06-14T02:52:49;20.6;39.1
78479;SHT31;67769;51.972;5.668;2023-06-14T02:55:20;20.6;39.1
78479;SHT31;67769;51.972;5.668;2023-06-14T02:57:50;20.6;39.3
78479;SHT31;67769;51.972;5.668;2023-06-14T03:00:21;20.5;39.2
78479;SHT31;67769;51.972;5.668;2023-06-14T03:02:50;20.5;39.4
78479;SHT31;67769;51.972;5.668;2023-06-14T03:05:22;20.5;39.3
78479;SHT31;67769;51.972;5.668;2023-06-14T03:07:53;20.4;39.5
78479;SHT31;67769;51.972;5.668;2023-06-14T03:10:24;20.4;39.6
78479;SHT31;67769;51.972;5.668;2023-06-14T03:12:56;20.4;39.8
78479;SHT31;67769;51.972;5.668;2023-06-14T03:15:26;20.3;39.8
78479;SHT31;67769;51.972;5.668;2023-06-14T03:17:56;20.3;39.7
78479;SHT31;67769;51.972;5.668;2023-06-14T03:20:26;20.3;39.8
78479;SHT31;67769;51.972;5.668;2023-06-14T03:23:01;20.3;39.7
78479;SHT31;67769;51.972;5.668;2023-06-14T03:25:31;20.2;40.1
78479;SHT31;67769;51.972;5.668;2023-06-14T03:28:03;20.2;40.2
78479;SHT31;67769;51.972;5.668;2023-06-14T03:30:33;20.2;40.2
78479;SHT31;67769;51.972;5.668;2023-06-14T03:33:03;20.1;40.3
78479;SHT31;67769;51.972;5.668;2023-06-14T03:35:33;20.1;40.4
78479;SHT31;67769;51.972;5.668;2023-06-14T03:38:03;20.1;40.5
78479;SHT31;67769;51.972;5.668;2023-06-14T03:40:33;20.1;40.6
78479;SHT31;67769;51.972;5.668;2023-06-14T03:43:02;20.0;40.7
78479;SHT31;67769;51.972;5.668;2023-06-14T03:45:32;20.0;40.8
78479;SHT31;67769;51.972;5.668;2023-06-14T03:48:03;20.0;40.8
78479;SHT31;67769;51.972;5.668;2023-06-14T03:50:36;20.0;40.9
78479;SHT31;67769;51.972;5.668;2023-06-14T03:53:06;20.0;41.0
78479;SHT31;67769;51.972;5.668;2023-06-14T03:55:36;20.0;41.1
78479;SHT31;67769;51.972;5.668;2023-06-14T03:58:06;19.9;41.2
78479;SHT31;67769;51.972;5.668;2023-06-14T04:00:36;19.9;41.4
78479;SHT31;67769;51.972;5.668;2023-06-14T04:03:06;19.9;41.3
78479;SHT31;67769;51.972;5.668;2023-06-14T04:05:37;19.9;41.3
78479;SHT31;67769;51.972;5.668;2023-06-14T04:08:09;19.9;41.5
78479;SHT31;67769;51.972;5.668;2023-06-14T04:10:42;19.9;41.7
78479;SHT31;67769;51.972;5.668;2023-06-14T04:13:12;19.9;41.7
78479;SHT31;67769;51.972;5.668;2023-06-14T04:15:44;19.9;41.6
78479;SHT31;67769;51.972;5.668;2023-06-14T04:18:13;19.9;41.8
78479;SHT31;67769;51.972;5.668;2023-06-14T04:20:45;19.9;41.8
78479;SHT31;67769;51.972;5.668;2023-06-14T04:23:17;19.9;41.7
78479;SHT31;67769;51.972;5.668;2023-06-14T04:25:47;19.9;41.8
78479;SHT31;67769;51.972;5.668;2023-06-14T04:28:17;19.9;41.7
78479;SHT31;67769;51.972;5.668;2023-06-14T04:30:47;19.9;41.9
78479;SHT31;67769;51.972;5.668;2023-06-14T04:33:16;19.9;42.2
78479;SHT31;67769;51.972;5.668;2023-06-14T04:35:46;20.0;42.0
78479;SHT31;67769;51.972;5.668;2023-06-14T04:38:18;20.0;42.0
78479;SHT31;67769;51.972;5.668;2023-06-14T04:40:52;20.0;42.2
78479;SHT31;67769;51.972;5.668;2023-06-14T04:43:24;20.0;42.1
78479;SHT31;67769;51.972;5.668;2023-06-14T04:45:55;20.1;42.2
78479;SHT31;67769;51.972;5.668;2023-06-14T04:48:25;20.1;42.3
78479;SHT31;67769;51.972;5.668;2023-06-14T04:50:55;20.2;42.0
78479;SHT31;67769;51.972;5.668;2023-06-14T04:53:27;20.4;42.0
78479;SHT31;67769;51.972;5.668;2023-06-14T04:55:57;20.7;41.3
78479;SHT31;67769;51.972;5.668;2023-06-14T04:58:28;20.9;41.0
78479;SHT31;67769;51.972;5.668;2023-06-14T05:01:00;21.2;40.3
78479;SHT31;67769;51.972;5.668;2023-06-14T05:03:32;21.4;39.8
78479;SHT31;67769;51.972;5.668;2023-06-14T05:06:02;21.5;39.4
78479;SHT31;67769;51.972;5.668;2023-06-14T05:08:32;21.5;39.2
78479;SHT31;67769;51.972;5.668;2023-06-14T05:11:01;21.6;39.3
78479;SHT31;67769;51.972;5.668;2023-06-14T05:13:31;21.6;39.1
78479;SHT31;67769;51.972;5.668;2023-06-14T05:16:02;21.7;39.0
78479;SHT31;67769;51.972;5.668;2023-06-14T05:18:31;21.7;39.0
78479;SHT31;67769;51.972;5.668;2023-06-14T05:21:03;21.7;39.0
78479;SHT31;67769;51.972;5.668;2023-06-14T05:23:33;21.7;39.1
78479;SHT31;67769;51.972;5.668;2023-06-14T05:26:03;21.7;38.9
78479;SHT31;67769;51.972;5.668;2023-06-14T05:28:34;21.8;39.2
78479;SHT31;67769;51.972;5.668;2023-06-14T05:31:04;21.8;39.3
78479;SHT31;67769;51.972;5.668;2023-06-14T05:33:34;21.9;39.1
78479;SHT31;67769;51.972;5.668;2023-06-14T05:36:03;22.0;39.7
78479;SHT31;67769;51.972;5.668;2023-06-14T05:38:33;22.2;39.4
78479;SHT31;67769;51.972;5.668;2023-06-14T05:41:03;22.5;38.8
78479;SHT31;67769;51.972;5.668;2023-06-14T05:43:32;22.8;38.0
78479;SHT31;67769;51.972;5.668;2023-06-14T05:46:04;23.2;37.9
78479;SHT31;67769;51.972;5.668;2023-06-14T05:48:34;23.5;37.1
78479;SHT31;67769;51.972;5.668;2023-06-14T05:51:03;23.9;36.3
78479;SHT31;67769;51.972;5.668;2023-06-14T05:53:36;24.3;36.2
78479;SHT31;67769;51.972;5.668;2023-06-14T05:56:06;24.7;35.3
78479;SHT31;67769;51.972;5.668;2023-06-14T05:58:35;25.1;34.2
78479;SHT31;67769;51.972;5.668;2023-06-14T06:01:05;25.5;32.6
78479;SHT31;67769;51.972;5.668;2023-06-14T06:03:35;25.8;32.6
78479;SHT31;67769;51.972;5.668;2023-06-14T06:06:04;26.0;31.4
78479;SHT31;67769;51.972;5.668;2023-06-14T06:08:35;26.2;31.7
78479;SHT31;67769;51.972;5.668;2023-06-14T06:11:05;26.3;31.3
78479;SHT31;67769;51.972;5.668;2023-06-14T06:13:35;26.5;30.8
78479;SHT31;67769;51.972;5.668;2023-06-14T06:16:06;26.6;31.0
78479;SHT31;67769;51.972;5.668;2023-06-14T06:18:36;26.8;30.2
78479;SHT31;67769;51.972;5.668;2023-06-14T06:21:06;26.9;30.0
78479;SHT31;67769;51.972;5.668;2023-06-14T06:23:36;27.0;29.9
78479;SHT31;67769;51.972;5.668;2023-06-14T06:26:07;27.1;29.8
78479;SHT31;67769;51.972;5.668;2023-06-14T06:28:36;27.2;29.9
78479;SHT31;67769;51.972;5.668;2023-06-14T06:31:06;27.3;29.8
78479;SHT31;67769;51.972;5.668;2023-06-14T06:33:35;27.4;29.7
78479;SHT31;67769;51.972;5.668;2023-06-14T06:36:07;27.5;29.7
78479;SHT31;67769;51.972;5.668;2023-06-14T06:38:38;27.6;29.9
78479;SHT31;67769;51.972;5.668;2023-06-14T06:41:08;27.8;29.6
78479;SHT31;67769;51.972;5.668;2023-06-14T06:43:37;27.9;29.4
78479;SHT31;67769;51.972;5.668;2023-06-14T06:46:08;28.1;29.3
78479;SHT31;67769;51.972;5.668;2023-06-14T06:48:37;28.3;28.9
78479;SHT31;67769;51.972;5.668;2023-06-14T06:51:09;28.5;28.7
78479;SHT31;67769;51.972;5.668;2023-06-14T06:53:42;28.6;28.5
78479;SHT31;67769;51.972;5.668;2023-06-14T06:56:12;28.8;27.9
78479;SHT31;67769;51.972;5.668;2023-06-14T06:58:42;28.9;28.0
78479;SHT31;67769;51.972;5.668;2023-06-14T07:01:12;29.0;27.1
78479;SHT31;67769;51.972;5.668;2023-06-14T07:03:42;29.0;27.0
78479;SHT31;67769;51.972;5.668;2023-06-14T07:06:12;29.0;27.4
78479;SHT31;67769;51.972;5.668;2023-06-14T07:08:43;29.1;27.5
78479;SHT31;67769;51.972;5.668;2023-06-14T07:11:15;29.1;27.0
78479;SHT31;67769;51.972;5.668;2023-06-14T07:13:45;29.1;27.3
78479;SHT31;67769;51.972;5.668;2023-06-14T07:16:14;29.2;27.2
78479;SHT31;67769;51.972;5.668;2023-06-14T07:18:44;29.2;27.2
78479;SHT31;67769;51.972;5.668;2023-06-14T07:21:14;29.3;27.2
78479;SHT31;67769;51.972;5.668;2023-06-14T07:23:43;29.4;27.3
78479;SHT31;67769;51.972;5.668;2023-06-14T07:26:13;29.5;27.0
78479;SHT31;67769;51.972;5.668;2023-06-14T07:28:43;29.6;27.3
78479;SHT31;67769;51.972;5.668;2023-06-14T07:31:14;29.6;27.5
78479;SHT31;67769;51.972;5.668;2023-06-14T07:33:46;29.8;27.1
78479;SHT31;67769;51.972;5.668;2023-06-14T07:36:15;29.9;26.3
78479;SHT31;67769;51.972;5.668;2023-06-14T07:38:46;30.0;26.2
78479;SHT31;67769;51.972;5.668;2023-06-14T07:41:15;30.1;26.2
78479;SHT31;67769;51.972;5.668;2023-06-14T07:43:45;30.2;26.3
78479;SHT31;67769;51.972;5.668;2023-06-14T07:46:16;30.3;26.3
78479;SHT31;67769;51.972;5.668;2023-06-14T07:48:46;30.4;26.2
78479;SHT31;67769;51.972;5.668;2023-06-14T07:51:16;30.6;25.8
78479;SHT31;67769;51.972;5.668;2023-06-14T07:53:45;30.7;25.4
78479;SHT31;67769;51.972;5.668;2023-06-14T07:56:15;30.9;25.7
78479;SHT31;67769;51.972;5.668;2023-06-14T07:58:47;31.1;24.8
78479;SHT31;67769;51.972;5.668;2023-06-14T08:01:17;31.2;24.3
78479;SHT31;67769;51.972;5.668;2023-06-14T08:03:47;31.3;24.6
78479;SHT31;67769;51.972;5.668;2023-06-14T08:06:17;31.4;24.9
78479;SHT31;67769;51.972;5.668;2023-06-14T08:08:46;31.5;24.6
78479;SHT31;67769;51.972;5.668;2023-06-14T08:11:16;31.6;24.2
78479;SHT31;67769;51.972;5.668;2023-06-14T08:13:46;31.7;23.8
78479;SHT31;67769;51.972;5.668;2023-06-14T08:16:16;31.8;23.1
78479;SHT31;67769;51.972;5.668;2023-06-14T08:18:45;31.9;23.4
78479;SHT31;67769;51.972;5.668;2023-06-14T08:21:15;31.9;22.8
78479;SHT31;67769;51.972;5.668;2023-06-14T08:23:45;31.9;22.6
78479;SHT31;67769;51.972;5.668;2023-06-14T08:26:18;31.9;22.8
78479;SHT31;67769;51.972;5.668;2023-06-14T08:28:48;31.9;22.8
78479;SHT31;67769;51.972;5.668;2023-06-14T08:31:17;32.0;22.7
78479;SHT31;67769;51.972;5.668;2023-06-14T08:33:47;32.0;22.4
78479;SHT31;67769;51.972;5.668;2023-06-14T08:36:17;32.0;22.3
78479;SHT31;67769;51.972;5.668;2023-06-14T08:38:47;32.1;22.4
78479;SHT31;67769;51.972;5.668;2023-06-14T08:41:21;32.1;22.6
78479;SHT31;67769;51.972;5.668;2023-06-14T08:43:52;32.2;22.5
78479;SHT31;67769;51.972;5.668;2023-06-14T08:46:25;32.2;22.3
78479;SHT31;67769;51.972;5.668;2023-06-14T08:48:59;32.3;22.0
78479;SHT31;67769;51.972;5.668;2023-06-14T08:51:32;32.3;22.1
78479;SHT31;67769;51.972;5.668;2023-06-14T08:54:05;32.3;21.7
78479;SHT31;67769;51.972;5.668;2023-06-14T08:56:37;32.3;21.3
78479;SHT31;67769;51.972;5.668;2023-06-14T08:59:11;32.3;21.2
78479;SHT31;67769;51.972;5.668;2023-06-14T09:01:43;32.4;21.1
78479;SHT31;67769;51.972;5.668;2023-06-14T09:04:15;32.4;21.5
78479;SHT31;67769;51.972;5.668;2023-06-14T09:06:44;32.4;21.2
78479;SHT31;67769;51.972;5.668;2023-06-14T09:09:19;32.4;21.1
78479;SHT31;67769;51.972;5.668;2023-06-14T09:11:50;32.4;21.0
78479;SHT31;67769;51.972;5.668;2023-06-14T09:14:21;32.5;20.8
78479;SHT31;67769;51.972;5.668;2023-06-14T09:16:54;32.5;21.0
78479;SHT31;67769;51.972;5.668;2023-06-14T09:19:24;32.5;21.3
78479;SHT31;67769;51.972;5.668;2023-06-14T09:21:54;32.5;21.5
78479;SHT31;67769;51.972;5.668;2023-06-14T09:24:25;32.5;20.4
78479;SHT31;67769;51.972;5.668;2023-06-14T09:26:55;32.6;20.0
78479;SHT31;67769;51.972;5.668;2023-06-14T09:29:27;32.6;20.2
78479;SHT31;67769;51.972;5.668;2023-06-14T09:31:58;32.7;20.4
78479;SHT31;67769;51.972;5.668;2023-06-14T09:34:28;32.8;20.7
78479;SHT31;67769;51.972;5.668;2023-06-14T09:36:58;32.8;20.7
78479;SHT31;67769;51.972;5.668;2023-06-14T09:39:29;32.9;20.9
78479;SHT31;67769;51.972;5.668;2023-06-14T09:41:59;33.0;20.2
78479;SHT31;67769;51.972;5.668;2023-06-14T09:44:29;33.1;20.0
78479;SHT31;67769;51.972;5.668;2023-06-14T09:46:59;33.2;20.1
78479;SHT31;67769;51.972;5.668;2023-06-14T09:49:28;33.3;20.1
78479;SHT31;67769;51.972;5.668;2023-06-14T09:52:00;33.4;20.0
78479;SHT31;67769;51.972;5.668;2023-06-14T09:54:31;33.5;19.1
78479;SHT31;67769;51.972;5.668;2023-06-14T09:57:05;33.6;19.4
78479;SHT31;67769;51.972;5.668;2023-06-14T09:59:38;33.6;19.5
78479;SHT31;67769;51.972;5.668;2023-06-14T10:02:20;33.6;19.5
78479;SHT31;67769;51.972;5.668;2023-06-14T10:05:02;33.6;19.6
78479;SHT31;67769;51.972;5.668;2023-06-14T10:07:32;33.5;20.0
78479;SHT31;67769;51.972;5.668;2023-06-14T10:10:03;33.4;20.1
78479;SHT31;67769;51.972;5.668;2023-06-14T10:12:33;33.3;19.9
78479;SHT31;67769;51.972;5.668;2023-06-14T10:15:04;33.2;19.6
78479;SHT31;67769;51.972;5.668;2023-06-14T10:17:42;33.2;19.9
78479;SHT31;67769;51.972;5.668;2023-06-14T10:20:25;33.1;20.0
78479;SHT31;67769;51.972;5.668;2023-06-14T10:23:02;33.0;20.3
78479;SHT31;67769;51.972;5.668;2023-06-14T10:25:33;32.9;20.7
78479;SHT31;67769;51.972;5.668;2023-06-14T10:28:17;32.8;20.9
78479;SHT31;67769;51.972;5.668;2023-06-14T10:31:09;32.8;20.9
78479;SHT31;67769;51.972;5.668;2023-06-14T10:33:50;32.8;21.3
78479;SHT31;67769;51.972;5.668;2023-06-14T10:36:28;32.9;20.8
78479;SHT31;67769;51.972;5.668;2023-06-14T10:39:05;32.9;21.2
78479;SHT31;67769;51.972;5.668;2023-06-14T10:41:40;33.0;21.3
78479;SHT31;67769;51.972;5.668;2023-06-14T10:44:51;33.0;20.7
78479;SHT31;67769;51.972;5.668;2023-06-14T10:47:27;33.0;20.7
78479;SHT31;67769;51.972;5.668;2023-06-14T10:50:06;33.0;20.8
78479;SHT31;67769;51.972;5.668;2023-06-14T10:52:39;33.0;21.0
78479;SHT31;67769;51.972;5.668;2023-06-14T10:55:10;33.0;21.1
78479;SHT31;67769;51.972;5.668;2023-06-14T10:57:44;33.0;20.9
78479;SHT31;67769;51.972;5.668;2023-06-14T11:00:21;33.0;20.7
78479;SHT31;67769;51.972;5.668;2023-06-14T11:04:47;33.0;20.3
78479;SHT31;67769;51.972;5.668;2023-06-14T11:07:32;33.0;20.7
78479;SHT31;67769;51.972;5.668;2023-06-14T11:10:18;33.1;20.4
78479;SHT31;67769;51.972;5.668;2023-06-14T11:12:54;33.1;20.1
78479;SHT31;67769;51.972;5.668;2023-06-14T11:15:29;33.1;19.9
78479;SHT31;67769;51.972;5.668;2023-06-14T11:18:03;33.1;20.1
78479;SHT31;67769;51.972;5.668;2023-06-14T11:20:36;33.2;19.9
78479;SHT31;67769;51.972;5.668;2023-06-14T11:23:05;33.2;19.8
78479;SHT31;67769;51.972;5.668;2023-06-14T11:25:35;33.2;19.9
78479;SHT31;67769;51.972;5.668;2023-06-14T11:28:05;33.2;20.5
78479;SHT31;67769;51.972;5.668;2023-06-14T11:30:35;33.2;20.1
78479;SHT31;67769;51.972;5.668;2023-06-14T11:33:09;33.2;19.9
78479;SHT31;67769;51.972;5.668;2023-06-14T11:35:41;33.2;19.8
78479;SHT31;67769;51.972;5.668;2023-06-14T11:38:14;33.2;19.9
78479;SHT31;67769;51.972;5.668;2023-06-14T11:40:45;33.2;20.0
78479;SHT31;67769;51.972;5.668;2023-06-14T11:43:15;33.1;19.7
78479;SHT31;67769;51.972;5.668;2023-06-14T11:45:48;33.1;20.0
78479;SHT31;67769;51.972;5.668;2023-06-14T11:48:18;33.0;20.4
78479;SHT31;67769;51.972;5.668;2023-06-14T11:50:52;33.0;20.3
78479;SHT31;67769;51.972;5.668;2023-06-14T11:53:22;32.9;19.9
78479;SHT31;67769;51.972;5.668;2023-06-14T11:55:53;32.9;19.9
78479;SHT31;67769;51.972;5.668;2023-06-14T11:58:23;32.8;20.3
78479;SHT31;67769;51.972;5.668;2023-06-14T12:00:53;32.7;20.6
78479;SHT31;67769;51.972;5.668;2023-06-14T12:03:27;32.7;21.3
78479;SHT31;67769;51.972;5.668;2023-06-14T12:06:07;32.7;20.7
78479;SHT31;67769;51.972;5.668;2023-06-14T12:08:39;32.7;20.7
78479;SHT31;67769;51.972;5.668;2023-06-14T12:11:13;32.7;20.6
78479;SHT31;67769;51.972;5.668;2023-06-14T12:13:44;32.6;20.8
78479;SHT31;67769;51.972;5.668;2023-06-14T12:16:14;32.5;20.9
78479;SHT31;67769;51.972;5.668;2023-06-14T12:18:43;32.5;21.3
78479;SHT31;67769;51.972;5.668;2023-06-14T12:21:13;32.4;21.6
78479;SHT31;67769;51.972;5.668;2023-06-14T12:23:45;32.4;21.8
78479;SHT31;67769;51.972;5.668;2023-06-14T12:26:17;32.3;21.6
78479;SHT31;67769;51.972;5.668;2023-06-14T12:28:48;32.3;21.5
78479;SHT31;67769;51.972;5.668;2023-06-14T12:31:18;32.2;22.0
78479;SHT31;67769;51.972;5.668;2023-06-14T12:33:50;32.2;21.8
78479;SHT31;67769;51.972;5.668;2023-06-14T12:36:19;32.2;21.6
78479;SHT31;67769;51.972;5.668;2023-06-14T12:38:49;32.1;21.9
78479;SHT31;67769;51.972;5.668;2023-06-14T12:41:21;32.0;21.7
78479;SHT31;67769;51.972;5.668;2023-06-14T12:43:52;32.0;21.7
78479;SHT31;67769;51.972;5.668;2023-06-14T12:46:22;31.9;21.9
78479;SHT31;67769;51.972;5.668;2023-06-14T12:48:52;31.9;20.9
78479;SHT31;67769;51.972;5.668;2023-06-14T12:51:21;31.9;21.4
78479;SHT31;67769;51.972;5.668;2023-06-14T12:53:52;31.8;21.5
78479;SHT31;67769;51.972;5.668;2023-06-14T12:56:22;31.8;21.5
78479;SHT31;67769;51.972;5.668;2023-06-14T12:58:53;31.7;21.9
78479;SHT31;67769;51.972;5.668;2023-06-14T13:01:23;31.7;22.2
78479;SHT31;67769;51.972;5.668;2023-06-14T13:03:53;31.6;22.3
78479;SHT31;67769;51.972;5.668;2023-06-14T13:06:25;31.5;22.2
78479;SHT31;67769;51.972;5.668;2023-06-14T13:08:57;31.5;22.5
78479;SHT31;67769;51.972;5.668;2023-06-14T13:11:27;31.5;22.8
78479;SHT31;67769;51.972;5.668;2023-06-14T13:13:57;31.4;22.6
78479;SHT31;67769;51.972;5.668;2023-06-14T13:16:26;31.4;22.6
78479;SHT31;67769;51.972;5.668;2023-06-14T13:18:56;31.4;22.3
78479;SHT31;67769;51.972;5.668;2023-06-14T13:21:26;31.4;22.2
78479;SHT31;67769;51.972;5.668;2023-06-14T13:23:55;31.5;22.4
78479;SHT31;67769;51.972;5.668;2023-06-14T13:26:25;31.5;23.0
78479;SHT31;67769;51.972;5.668;2023-06-14T13:28:55;31.5;23.2
78479;SHT31;67769;51.972;5.668;2023-06-14T13:31:25;31.5;22.8
78479;SHT31;67769;51.972;5.668;2023-06-14T13:33:54;31.5;22.8
78479;SHT31;67769;51.972;5.668;2023-06-14T13:36:24;31.5;22.7
78479;SHT31;67769;51.972;5.668;2023-06-14T13:38:54;31.4;23.2
78479;SHT31;67769;51.972;5.668;2023-06-14T13:41:28;31.4;22.5
78479;SHT31;67769;51.972;5.668;2023-06-14T13:44:01;31.4;22.8
78479;SHT31;67769;51.972;5.668;2023-06-14T13:46:32;31.3;23.3
78479;SHT31;67769;51.972;5.668;2023-06-14T13:49:03;31.3;23.0
78479;SHT31;67769;51.972;5.668;2023-06-14T13:51:33;31.2;22.9
78479;SHT31;67769;51.972;5.668;2023-06-14T13:54:03;31.2;22.7
78479;SHT31;67769;51.972;5.668;2023-06-14T13:56:33;31.1;22.7
78479;SHT31;67769;51.972;5.668;2023-06-14T13:59:03;31.1;22.6
78479;SHT31;67769;51.972;5.668;2023-06-14T14:01:33;31.1;22.7
78479;SHT31;67769;51.972;5.668;2023-06-14T14:04:03;31.1;22.6
78479;SHT31;67769;51.972;5.668;2023-06-14T14:06:33;31.0;22.7
78479;SHT31;67769;51.972;5.668;2023-06-14T14:09:03;31.0;22.7
78479;SHT31;67769;51.972;5.668;2023-06-14T14:11:32;31.0;22.8
78479;SHT31;67769;51.972;5.668;2023-06-14T14:14:02;31.0;23.2
78479;SHT31;67769;51.972;5.668;2023-06-14T14:16:32;31.0;22.7
78479;SHT31;67769;51.972;5.668;2023-06-14T14:19:02;31.0;22.9
78479;SHT31;67769;51.972;5.668;2023-06-14T14:21:33;31.0;22.4
78479;SHT31;67769;51.972;5.668;2023-06-14T14:24:03;31.0;22.3
78479;SHT31;67769;51.972;5.668;2023-06-14T14:26:35;30.9;22.7
78479;SHT31;67769;51.972;5.668;2023-06-14T14:29:05;30.9;22.6
78479;SHT31;67769;51.972;5.668;2023-06-14T14:31:35;30.8;23.3
78479;SHT31;67769;51.972;5.668;2023-06-14T14:34:04;30.8;23.5
78479;SHT31;67769;51.972;5.668;2023-06-14T14:36:34;30.8;23.4
78479;SHT31;67769;51.972;5.668;2023-06-14T14:39:05;30.8;23.2
78479;SHT31;67769;51.972;5.668;2023-06-14T14:41:34;30.7;23.6
78479;SHT31;67769;51.972;5.668;2023-06-14T14:44:05;30.7;23.4
78479;SHT31;67769;51.972;5.668;2023-06-14T14:46:35;30.7;23.3
78479;SHT31;67769;51.972;5.668;2023-06-14T14:49:08;30.7;23.8
78479;SHT31;67769;51.972;5.668;2023-06-14T14:51:38;30.6;23.7
78479;SHT31;67769;51.972;5.668;2023-06-14T14:54:08;30.6;23.8
78479;SHT31;67769;51.972;5.668;2023-06-14T14:56:38;30.6;23.6
78479;SHT31;67769;51.972;5.668;2023-06-14T14:59:08;30.6;23.7
78479;SHT31;67769;51.972;5.668;2023-06-14T15:01:38;30.5;23.8
78479;SHT31;67769;51.972;5.668;2023-06-14T15:04:09;30.5;23.7
78479;SHT31;67769;51.972;5.668;2023-06-14T15:06:39;30.5;23.1
78479;SHT31;67769;51.972;5.668;2023-06-14T15:09:09;30.5;23.1
78479;SHT31;67769;51.972;5.668;2023-06-14T15:11:39;30.4;23.0
78479;SHT31;67769;51.972;5.668;2023-06-14T15:14:11;30.4;22.8
78479;SHT31;67769;51.972;5.668;2023-06-14T15:16:42;30.4;22.4
78479;SHT31;67769;51.972;5.668;2023-06-14T15:19:12;30.4;23.2
78479;SHT31;67769;51.972;5.668;2023-06-14T15:21:41;30.3;23.0
78479;SHT31;67769;51.972;5.668;2023-06-14T15:24:11;30.3;22.5
78479;SHT31;67769;51.972;5.668;2023-06-14T15:26:41;30.3;23.0
78479;SHT31;67769;51.972;5.668;2023-06-14T15:29:10;30.3;23.5
78479;SHT31;67769;51.972;5.668;2023-06-14T15:31:40;30.2;23.5
78479;SHT31;67769;51.972;5.668;2023-06-14T15:34:10;30.2;23.9
78479;SHT31;67769;51.972;5.668;2023-06-14T15:36:40;30.1;24.0
78479;SHT31;67769;51.972;5.668;2023-06-14T15:39:09;30.1;23.9
78479;SHT31;67769;51.972;5.668;2023-06-14T15:41:39;30.1;23.8
78479;SHT31;67769;51.972;5.668;2023-06-14T15:44:09;30.0;23.8
78479;SHT31;67769;51.972;5.668;2023-06-14T15:46:39;30.0;23.2
78479;SHT31;67769;51.972;5.668;2023-06-14T15:49:11;30.0;23.5
78479;SHT31;67769;51.972;5.668;2023-06-14T15:51:41;30.0;23.6
78479;SHT31;67769;51.972;5.668;2023-06-14T15:54:11;29.9;24.3
78479;SHT31;67769;51.972;5.668;2023-06-14T15:56:41;29.9;24.5
78479;SHT31;67769;51.972;5.668;2023-06-14T15:59:10;29.9;24.0
78479;SHT31;67769;51.972;5.668;2023-06-14T16:01:40;29.8;23.5
78479;SHT31;67769;51.972;5.668;2023-06-14T16:04:09;29.8;24.3
78479;SHT31;67769;51.972;5.668;2023-06-14T16:06:39;29.7;24.1
78479;SHT31;67769;51.972;5.668;2023-06-14T16:09:09;29.6;24.3
78479;SHT31;67769;51.972;5.668;2023-06-14T16:11:38;29.5;24.7
78479;SHT31;67769;51.972;5.668;2023-06-14T16:14:08;29.5;24.8
78479;SHT31;67769;51.972;5.668;2023-06-14T16:16:37;29.5;25.2
78479;SHT31;67769;51.972;5.668;2023-06-14T16:19:07;29.4;25.5
78479;SHT31;67769;51.972;5.668;2023-06-14T16:21:37;29.4;25.4
78479;SHT31;67769;51.972;5.668;2023-06-14T16:24:07;29.4;25.4
78479;SHT31;67769;51.972;5.668;2023-06-14T16:26:39;29.3;25.7
78479;SHT31;67769;51.972;5.668;2023-06-14T16:29:10;29.3;25.1